createdAt,value
2022-09-20T00:00:21.916Z,97568.41
2022-09-20T00:02:54.911Z,97573.72
2022-09-20T00:05:28.789Z,97576.06
2022-09-20T00:07:59.076Z,97581.06
2022-09-20T00:10:28.290Z,97585.44
2022-09-20T00:12:57.572Z,97589.19
2022-09-20T00:15:27.720Z,97585.91
2022-09-20T00:17:55.880Z,97591.72
2022-09-20T00:20:24.814Z,97595.59
2022-09-20T00:22:53.990Z,97595.59
2022-09-20T00:25:22.675Z,97596.69
2022-09-20T00:27:51.446Z,97611.25
2022-09-20T00:30:24.592Z,97606.38
2022-09-20T00:32:57.795Z,97609.53
2022-09-20T00:38:19.236Z,97620.78
2022-09-20T00:40:48.143Z,97618.91
2022-09-20T00:43:18.137Z,97625.31
2022-09-20T00:45:52.033Z,97625.00
2022-09-20T00:48:29.928Z,97623.16
2022-09-20T00:51:01.665Z,97634.88
2022-09-20T00:53:32.833Z,97633.44
2022-09-20T00:56:11.185Z,97635.50
2022-09-20T00:58:43.345Z,97653.13
2022-09-20T01:01:37.271Z,97657.03
2022-09-20T01:04:09.883Z,97654.22
2022-09-20T01:06:38.112Z,97645.97
2022-09-20T01:09:08.344Z,97644.88
2022-09-20T01:11:38.455Z,97656.72
2022-09-20T01:14:06.714Z,97655.78
2022-09-20T01:16:36.087Z,97657.81
2022-09-20T01:19:07.657Z,97667.19
2022-09-20T01:21:43.863Z,97682.06
2022-09-20T01:27:14.594Z,97676.75
2022-09-20T01:29:54.725Z,97677.03
2022-09-20T01:32:36.859Z,97686.75
2022-09-20T01:35:06.016Z,97683.94
2022-09-20T01:37:38.907Z,97683.44
2022-09-20T01:40:12.060Z,97708.78
2022-09-20T01:42:44.989Z,97704.56
2022-09-20T01:45:21.372Z,97707.53
2022-09-20T01:47:53.316Z,97705.34
2022-09-20T01:50:27.122Z,97710.19
2022-09-20T01:53:05.751Z,97724.09
2022-09-20T01:56:03.698Z,97706.69
2022-09-20T01:59:19.807Z,97719.41
2022-09-20T02:02:01.746Z,97724.25
2022-09-20T02:04:44.565Z,97729.44
2022-09-20T02:07:21.632Z,97731.56
2022-09-20T02:10:13.653Z,97734.72
2022-09-20T02:12:50.501Z,97734.59
2022-09-20T02:15:29.914Z,97742.88
2022-09-20T02:18:05.018Z,97741.16
2022-09-20T02:20:42.468Z,97746.31
2022-09-20T02:23:22.683Z,97752.13
2022-09-20T02:26:02.542Z,97762.94
2022-09-20T02:28:36.190Z,97770.72
2022-09-20T02:31:09.636Z,97774.66
2022-09-20T02:33:49.113Z,97782.00
2022-09-20T02:36:32.223Z,97780.75
2022-09-20T02:39:09.232Z,97774.50
2022-09-20T02:41:43.702Z,97788.72
2022-09-20T02:44:18.938Z,97796.38
2022-09-20T02:46:50.908Z,97787.91
2022-09-20T02:49:23.793Z,97798.41
2022-09-20T02:51:53.966Z,97808.09
2022-09-20T02:54:31.357Z,97820.00
2022-09-20T02:57:03.747Z,97818.44
2022-09-20T02:59:37.189Z,97828.00
2022-09-20T03:02:10.031Z,97829.56
2022-09-20T03:04:47.231Z,97827.19
2022-09-20T03:07:22.322Z,97837.19
2022-09-20T03:09:56.319Z,97843.47
2022-09-20T03:12:32.024Z,97845.16
2022-09-20T03:15:07.758Z,97854.09
2022-09-20T03:17:42.629Z,97856.16
2022-09-20T03:20:19.173Z,97862.56
2022-09-20T03:22:55.056Z,97875.22
2022-09-20T03:25:37.820Z,97883.50
2022-09-20T03:28:12.299Z,97871.66
2022-09-20T03:30:47.944Z,97883.06
2022-09-20T03:33:22.287Z,97886.63
2022-09-20T03:36:05.135Z,97889.66
2022-09-20T03:38:40.244Z,97888.72
2022-09-20T03:41:23.354Z,97902.03
2022-09-20T03:44:00.967Z,97907.19
2022-09-20T03:46:30.528Z,97906.41
2022-09-20T03:49:12.370Z,97915.03
2022-09-20T03:51:45.925Z,97915.22
2022-09-20T03:54:26.538Z,97917.41
2022-09-20T03:57:16.072Z,97921.00
2022-09-20T04:00:03.215Z,97926.97
2022-09-20T04:02:40.369Z,97927.91
2022-09-20T04:05:10.999Z,97925.41
2022-09-20T04:07:45.178Z,97936.19
2022-09-20T04:10:20.408Z,97940.91
2022-09-20T04:12:54.486Z,97939.56
2022-09-20T04:15:31.451Z,97943.59
2022-09-20T04:18:02.683Z,97951.47
2022-09-20T04:20:35.371Z,97956.31
2022-09-20T04:23:06.823Z,97961.56
2022-09-20T04:25:43.624Z,97965.63
2022-09-20T04:28:15.455Z,97969.72
2022-09-20T04:30:46.351Z,97970.88
2022-09-20T04:33:16.905Z,97977.78
2022-09-20T04:36:03.986Z,97980.56
2022-09-20T04:38:32.742Z,97987.06
2022-09-20T04:41:09.947Z,97993.88
2022-09-20T04:43:55.697Z,97994.09
2022-09-20T04:46:38.884Z,98002.53
2022-09-20T04:49:34.167Z,97998.75
2022-09-20T04:52:32.644Z,98004.97
2022-09-20T04:55:18.743Z,98009.53
2022-09-20T04:58:01.865Z,98002.66
2022-09-20T05:00:40.094Z,98023.59
2022-09-20T05:03:32.236Z,98019.41
2022-09-20T05:06:17.179Z,98014.75
2022-09-20T05:09:00.700Z,98030.63
2022-09-20T05:11:47.436Z,98028.63
2022-09-20T05:17:14.973Z,98043.50
2022-09-20T05:19:52.745Z,98040.75
2022-09-20T05:22:38.520Z,98049.41
2022-09-20T05:25:23.680Z,98045.53
2022-09-20T05:27:54.385Z,98060.28
2022-09-20T05:30:26.776Z,98067.06
2022-09-20T05:33:06.185Z,98065.47
2022-09-20T05:41:08.782Z,98074.25
2022-09-20T05:43:39.935Z,98087.28
2022-09-20T05:46:16.802Z,98083.22
2022-09-20T05:51:58.340Z,98097.63
2022-09-20T05:54:32.578Z,98084.94
2022-09-20T05:57:08.790Z,98084.31
2022-09-20T05:59:43.183Z,98122.13
2022-09-20T06:02:23.942Z,98107.69
2022-09-20T06:04:57.927Z,98101.09
2022-09-20T06:07:33.827Z,98123.81
2022-09-20T06:10:16.549Z,98104.97
2022-09-20T06:12:53.740Z,98136.66
2022-09-20T06:15:35.344Z,98117.34
2022-09-20T06:18:08.456Z,98124.44
2022-09-20T06:20:39.203Z,98130.13
2022-09-20T06:23:11.475Z,98123.84
2022-09-20T06:25:43.611Z,98129.31
2022-09-20T06:28:18.639Z,98129.94
2022-09-20T06:30:49.274Z,98138.84
2022-09-20T06:33:19.344Z,98143.63
2022-09-20T06:35:56.887Z,98156.19
2022-09-20T06:39:07.551Z,98159.56
2022-09-20T06:41:38.536Z,98157.97
2022-09-20T06:44:07.541Z,98155.75
2022-09-20T06:46:36.911Z,98155.50
2022-09-20T06:49:08.464Z,98155.25
2022-09-20T06:51:38.160Z,98165.56
2022-09-20T06:54:11.527Z,98165.53
2022-09-20T06:56:39.796Z,98169.75
2022-09-20T06:59:08.751Z,98168.41
2022-09-20T07:01:37.226Z,98182.03
2022-09-20T07:04:06.296Z,98182.72
2022-09-20T07:06:34.609Z,98175.06
2022-09-20T07:09:03.124Z,98187.06
2022-09-20T07:11:34.457Z,98187.06
2022-09-20T07:14:05.469Z,98185.94
2022-09-20T07:16:33.699Z,98184.47
2022-09-20T07:19:02.011Z,98184.16
2022-09-20T07:21:30.251Z,98195.59
2022-09-20T07:23:58.518Z,98189.50
2022-09-20T07:27:00.642Z,98207.03
2022-09-20T07:29:29.594Z,98215.09
2022-09-20T07:31:58.931Z,98213.28
2022-09-20T07:34:27.379Z,98212.78
2022-09-20T07:36:57.538Z,98227.91
2022-09-20T07:39:26.387Z,98208.78
2022-09-20T07:41:54.318Z,98215.59
2022-09-20T07:44:38.060Z,98231.31
2022-09-20T07:57:16.976Z,98229.31
2022-09-20T07:59:49.951Z,98221.53
2022-09-20T08:02:18.380Z,98234.28
2022-09-20T08:04:49.996Z,98224.66
2022-09-20T08:07:18.790Z,98217.44
2022-09-20T08:09:46.840Z,98222.50
2022-09-20T08:15:08.543Z,98238.13
2022-09-20T08:17:40.365Z,98240.59
2022-09-20T08:20:09.773Z,98236.25
2022-09-20T08:22:39.470Z,98245.50
2022-09-20T08:25:08.572Z,98273.03
2022-09-20T08:27:37.466Z,98247.25
2022-09-20T08:30:07.980Z,98243.06
2022-09-20T08:32:36.274Z,98244.78
2022-09-20T08:35:04.701Z,98251.50
2022-09-20T08:37:33.067Z,98263.19
2022-09-20T08:40:01.325Z,98257.69
2022-09-20T08:42:34.910Z,98266.34
2022-09-20T08:45:09.590Z,98257.25
2022-09-20T08:47:39.603Z,98273.00
2022-09-20T08:50:11.038Z,98271.69
2022-09-20T08:52:40.931Z,98271.53
2022-09-20T08:55:17.047Z,98266.84
2022-09-20T08:57:46.654Z,98271.75
2022-09-20T09:00:19.390Z,98270.13
2022-09-20T09:02:47.716Z,98274.16
2022-09-20T09:05:31.822Z,98274.50
2022-09-20T09:08:00.889Z,98270.66
2022-09-20T09:10:32.372Z,98274.94
2022-09-20T09:13:00.839Z,98273.94
2022-09-20T09:15:32.884Z,98283.84
2022-09-20T09:18:01.511Z,98285.09
2022-09-20T09:20:29.882Z,98282.69
2022-09-20T09:23:02.972Z,98294.34
2022-09-20T09:25:34.510Z,98295.94
2022-09-20T09:28:03.766Z,98279.06
2022-09-20T09:30:33.941Z,98290.56
2022-09-20T09:33:20.181Z,98292.38
2022-09-20T09:35:54.423Z,98291.50
2022-09-20T09:38:24.726Z,98299.50
2022-09-20T09:40:54.377Z,98306.91
2022-09-20T09:43:27.252Z,98307.25
2022-09-20T09:45:57.351Z,98305.28
2022-09-20T09:48:27.122Z,98310.94
2022-09-20T09:51:13.171Z,98317.53
2022-09-20T09:53:41.514Z,98324.81
2022-09-20T09:56:18.270Z,98317.25
2022-09-20T09:58:58.572Z,98319.00
2022-09-20T10:01:34.300Z,98319.81
2022-09-20T10:04:06.992Z,98323.50
2022-09-20T10:06:40.020Z,98329.13
2022-09-20T10:09:18.064Z,98333.53
2022-09-20T10:12:02.297Z,98334.94
2022-09-20T10:14:43.379Z,98336.69
2022-09-20T10:17:20.006Z,98339.78
2022-09-20T10:19:57.787Z,98338.59
2022-09-20T10:22:31.394Z,98335.81
2022-09-20T10:25:04.902Z,98342.72
2022-09-20T10:27:41.635Z,98349.09
2022-09-20T10:30:11.893Z,98348.75
2022-09-20T10:32:53.049Z,98358.81
2022-09-20T10:35:26.802Z,98354.56
2022-09-20T10:38:03.837Z,98346.41
2022-09-20T10:40:50.308Z,98361.31
2022-09-20T10:43:25.988Z,98363.75
2022-09-20T10:46:21.069Z,98365.78
2022-09-20T10:48:53.172Z,98374.72
2022-09-20T10:51:26.101Z,98364.88
2022-09-20T10:54:00.158Z,98365.22
2022-09-20T10:56:29.941Z,98372.78
2022-09-20T10:59:11.308Z,98380.09
2022-09-20T11:01:44.446Z,98373.78
2022-09-20T11:04:23.484Z,98383.91
2022-09-20T11:06:55.815Z,98393.72
2022-09-20T11:09:26.360Z,98402.22
2022-09-20T11:11:59.936Z,98406.75
2022-09-20T11:14:33.559Z,98399.50
2022-09-20T11:17:05.083Z,98419.53
2022-09-20T11:19:38.591Z,98422.44
2022-09-20T11:22:10.306Z,98440.09
2022-09-20T11:24:39.552Z,98455.53
2022-09-20T11:27:12.103Z,98426.09
2022-09-20T11:29:42.565Z,98423.38
2022-09-20T11:32:14.061Z,98426.94
2022-09-20T11:34:48.464Z,98439.97
2022-09-20T11:37:18.381Z,98444.03
2022-09-20T11:39:50.114Z,98435.72
2022-09-20T11:42:20.527Z,98448.47
2022-09-20T11:44:49.398Z,98456.84
2022-09-20T11:47:42.767Z,98443.34
2022-09-20T11:50:33.349Z,98448.03
2022-09-20T11:53:08.173Z,98455.59
2022-09-20T11:55:42.897Z,98460.72
2022-09-20T11:58:12.869Z,98460.47
2022-09-20T12:00:42.816Z,98469.84
2022-09-20T12:03:22.683Z,98473.56
2022-09-20T12:05:58.390Z,98475.72
2022-09-20T12:08:28.162Z,98484.97
2022-09-20T12:10:59.107Z,98481.41
2022-09-20T12:13:28.211Z,98474.78
2022-09-20T12:16:00.980Z,98475.78
2022-09-20T12:18:33.225Z,98481.31
2022-09-20T12:21:04.508Z,98474.66
2022-09-20T12:23:51.126Z,98459.84
2022-09-20T12:26:34.011Z,98475.75
2022-09-20T12:29:03.158Z,98473.97
2022-09-20T12:31:41.943Z,98484.84
2022-09-20T12:34:24.748Z,98479.63
2022-09-20T12:37:08.058Z,98485.31
2022-09-20T12:39:38.995Z,98483.22
2022-09-20T12:42:24.666Z,98484.06
2022-09-20T12:44:59.099Z,98483.56
2022-09-20T12:47:29.195Z,98499.59
2022-09-20T12:50:16.198Z,98492.94
2022-09-20T12:52:54.090Z,98489.97
2022-09-20T12:55:47.162Z,98503.44
2022-09-20T12:58:25.537Z,98506.38
2022-09-20T13:01:11.978Z,98496.41
2022-09-20T13:03:43.741Z,98493.66
2022-09-20T13:06:26.660Z,98492.03
2022-09-20T13:09:04.431Z,98495.13
2022-09-20T13:11:36.213Z,98488.28
2022-09-20T13:14:08.544Z,98501.56
2022-09-20T13:16:42.634Z,98492.38
2022-09-20T13:19:16.671Z,98499.50
2022-09-20T13:21:49.769Z,98499.31
2022-09-20T13:24:20.178Z,98519.31
2022-09-20T13:26:49.411Z,98512.41
2022-09-20T13:29:24.661Z,98520.50
2022-09-20T13:31:52.851Z,98517.28
2022-09-20T13:34:22.839Z,98519.94
2022-09-20T13:36:55.996Z,98531.50
2022-09-20T13:39:26.750Z,98528.63
2022-09-20T13:41:55.000Z,98526.81
2022-09-20T13:44:25.780Z,98528.34
2022-09-20T13:46:53.870Z,98529.53
2022-09-20T13:49:24.014Z,98547.16
2022-09-20T13:51:52.965Z,98541.63
2022-09-20T13:54:25.888Z,98547.03
2022-09-20T13:56:55.020Z,98547.78
2022-09-20T13:59:24.932Z,98547.78
2022-09-20T14:01:54.865Z,98546.22
2022-09-20T14:04:24.607Z,98544.72
2022-09-20T14:06:54.408Z,98547.00
2022-09-20T14:09:26.787Z,98550.13
2022-09-20T14:11:56.352Z,98544.19
2022-09-20T14:14:26.699Z,98539.81
2022-09-20T14:16:55.644Z,98539.88
2022-09-20T14:19:27.040Z,98543.69
2022-09-20T14:21:55.335Z,98543.53
2022-09-20T14:24:29.081Z,98544.91
2022-09-20T14:27:07.900Z,98544.56
2022-09-20T14:29:41.309Z,98547.38
2022-09-20T14:32:13.415Z,98553.28
2022-09-20T14:34:42.709Z,98556.94
2022-09-20T14:37:13.558Z,98555.25
2022-09-20T14:39:48.687Z,98553.63
2022-09-20T14:42:21.870Z,98561.66
2022-09-20T14:44:53.470Z,98556.09
2022-09-20T14:47:29.095Z,98564.81
2022-09-20T14:49:58.306Z,98557.19
2022-09-20T14:52:41.009Z,98557.22
2022-09-20T14:55:29.677Z,98562.56
2022-09-20T14:58:01.842Z,98567.94
2022-09-20T15:00:31.467Z,98567.16
2022-09-20T15:03:06.004Z,98572.19
2022-09-20T15:05:34.103Z,98572.03
2022-09-20T15:08:02.513Z,98565.28
2022-09-20T15:10:30.934Z,98574.41
2022-09-20T15:12:59.205Z,98580.22
2022-09-20T15:15:27.383Z,98577.22
2022-09-20T15:17:56.975Z,98583.81
2022-09-20T15:20:25.648Z,98588.34
2022-09-20T15:22:53.759Z,98595.59
2022-09-20T15:25:22.137Z,98595.72
2022-09-20T15:27:51.056Z,98594.00
2022-09-20T15:30:21.220Z,98593.50
2022-09-20T15:32:49.509Z,98605.75
2022-09-20T15:35:19.509Z,98600.06
2022-09-20T15:37:47.853Z,98597.25
2022-09-20T15:40:15.951Z,98596.53
2022-09-20T15:42:44.154Z,98598.25
2022-09-20T15:45:12.743Z,98598.63
2022-09-20T15:47:41.245Z,98607.75
2022-09-20T15:50:11.084Z,98609.97
2022-09-20T15:52:41.756Z,98605.84
2022-09-20T15:55:10.360Z,98611.09
2022-09-20T15:57:39.707Z,98612.09
2022-09-20T16:00:08.951Z,98608.84
2022-09-20T16:02:37.308Z,98619.63
2022-09-20T16:05:06.317Z,98625.03
2022-09-20T16:07:34.761Z,98629.78
2022-09-20T16:10:04.694Z,98636.50
2022-09-20T16:12:32.838Z,98633.63
2022-09-20T16:15:00.802Z,98635.59
2022-09-20T16:17:42.545Z,98633.09
2022-09-20T16:20:11.085Z,98638.81
2022-09-20T16:22:39.174Z,98638.94
2022-09-20T16:25:09.657Z,98632.19
2022-09-20T16:27:38.938Z,98633.88
2022-09-20T16:30:07.540Z,98631.47
2022-09-20T16:32:35.889Z,98638.50
2022-09-20T16:35:07.271Z,98647.56
2022-09-20T16:37:36.957Z,98642.31
2022-09-20T16:40:05.438Z,98641.59
2022-09-20T16:42:34.927Z,98646.72
2022-09-20T16:45:03.487Z,98652.50
2022-09-20T16:47:31.751Z,98649.16
2022-09-20T16:49:59.992Z,98645.13
2022-09-20T16:52:28.279Z,98646.78
2022-09-20T16:54:56.247Z,98645.47
2022-09-20T16:57:24.303Z,98654.31
2022-09-20T16:59:55.959Z,98655.69
2022-09-20T17:02:24.061Z,98651.22
2022-09-20T17:04:52.528Z,98659.22
2022-09-20T17:07:24.656Z,98650.22
2022-09-20T17:10:00.755Z,98653.97
2022-09-20T17:12:32.913Z,98647.16
2022-09-20T17:15:02.863Z,98660.50
2022-09-20T17:17:32.171Z,98653.66
2022-09-20T17:20:00.943Z,98660.66
2022-09-20T17:22:32.695Z,98658.63
2022-09-20T17:25:00.754Z,98658.88
2022-09-20T17:27:29.240Z,98661.59
2022-09-20T17:29:57.628Z,98664.28
2022-09-20T17:32:27.092Z,98675.50
2022-09-20T17:34:56.078Z,98676.34
2022-09-20T17:37:24.287Z,98681.75
2022-09-20T17:39:52.283Z,98675.63
2022-09-20T17:42:20.937Z,98679.94
2022-09-20T17:44:53.513Z,98682.94
2022-09-20T17:47:28.466Z,98691.75
2022-09-20T17:50:03.256Z,98689.19
2022-09-20T17:52:41.490Z,98689.44
2022-09-20T17:55:11.981Z,98689.50
2022-09-20T17:57:53.177Z,98682.88
2022-09-20T18:00:31.239Z,98682.44
2022-09-20T18:03:21.588Z,98684.84
2022-09-20T18:09:29.218Z,98691.41
2022-09-20T18:18:32.930Z,98689.84
2022-09-20T18:21:07.220Z,98685.59
2022-09-20T18:23:42.076Z,98690.34
2022-09-20T18:26:30.380Z,98696.72
2022-09-20T18:29:22.461Z,98695.69
2022-09-20T18:32:13.826Z,98699.97
2022-09-20T18:34:59.760Z,98697.59
2022-09-20T18:37:44.876Z,98693.63
2022-09-20T18:40:17.943Z,98689.91
2022-09-20T18:49:35.482Z,98697.66
2022-09-20T18:57:14.524Z,98698.44
2022-09-20T19:00:03.442Z,98694.72
2022-09-20T19:03:00.441Z,98703.19
2022-09-20T19:17:42.455Z,98714.44
2022-09-20T19:30:26.397Z,98715.72
2022-09-20T19:33:03.000Z,98717.34
2022-09-20T19:35:50.519Z,98709.94
2022-09-20T19:38:30.118Z,98713.44
2022-09-20T19:41:15.854Z,98715.28
2022-09-20T19:44:07.132Z,98714.75
2022-09-20T19:52:26.759Z,98721.72
2022-09-20T19:57:57.212Z,98728.94
2022-09-20T20:03:35.539Z,98732.59
2022-09-20T20:06:08.610Z,98737.88
2022-09-20T20:08:44.384Z,98733.91
2022-09-20T20:14:04.650Z,98739.50
2022-09-20T20:16:35.196Z,98732.38
2022-09-20T20:19:09.584Z,98736.59
2022-09-20T20:21:43.095Z,98736.84
2022-09-20T20:24:20.737Z,98739.47
2022-09-20T20:26:48.874Z,98732.34
2022-09-20T20:29:17.024Z,98740.06
2022-09-20T20:31:45.138Z,98747.22
2022-09-20T20:34:16.365Z,98742.75
2022-09-20T20:36:45.819Z,98739.56
2022-09-20T20:39:16.198Z,98739.56
2022-09-20T20:41:44.509Z,98733.75
2022-09-20T20:44:12.666Z,98739.03
2022-09-20T20:46:40.956Z,98736.69
2022-09-20T20:49:09.302Z,98743.06
2022-09-20T20:51:37.771Z,98731.13
2022-09-20T20:54:06.506Z,98734.28
2022-09-20T20:56:36.263Z,98734.81
2022-09-20T20:59:05.980Z,98735.88
2022-09-20T21:01:34.758Z,98732.97
2022-09-20T21:04:03.730Z,98731.94
2022-09-20T21:06:36.136Z,98730.63
2022-09-20T21:09:05.940Z,98737.31
2022-09-20T21:11:36.495Z,98742.88
2022-09-20T21:14:10.661Z,98734.66
2022-09-20T21:16:39.786Z,98739.72
2022-09-20T21:44:34.548Z,98733.38
2022-09-20T21:47:03.261Z,98736.31
2022-09-20T21:52:25.469Z,98740.81
2022-09-20T21:55:10.430Z,98739.50
2022-09-20T21:57:52.868Z,98737.09
2022-09-20T22:00:28.738Z,98744.75
2022-09-20T22:03:00.146Z,98736.53
2022-09-20T22:13:30.407Z,98740.47
2022-09-20T22:18:58.406Z,98742.84
2022-09-20T22:21:37.798Z,98741.25
2022-09-20T22:27:10.299Z,98745.03
2022-09-20T22:35:01.298Z,98746.09
2022-09-20T22:43:32.998Z,98760.41
2022-09-20T22:46:11.556Z,98760.94
2022-09-20T23:38:42.172Z,98759.56
2022-09-20T23:41:49.902Z,98767.56
2022-09-20T23:50:54.034Z,98768.38
